sensor_id;sensor_type;location;lat;lon;timestamp;pressure;altitude;pressure_sealevel;temperature;humidity
78383;BME280;67668;52.294;4.692;2023-05-10T00:02:59;100909.69;;;14.28;79.92
78383;BME280;67668;52.294;4.692;2023-05-10T00:05:24;100913.34;;;14.27;79.68
78383;BME280;67668;52.294;4.692;2023-05-10T00:07:50;100910.81;;;14.25;79.60
78383;BME280;67668;52.294;4.692;2023-05-10T00:10:15;100906.66;;;14.23;79.98
78383;BME280;67668;52.294;4.692;2023-05-10T00:12:40;100900.50;;;14.22;80.03
78383;BME280;67668;52.294;4.692;2023-05-10T00:15:06;100901.69;;;14.20;79.56
78383;BME280;67668;52.294;4.692;2023-05-10T00:17:32;100905.31;;;14.19;79.36
78383;BME280;67668;52.294;4.692;2023-05-10T00:19:57;100903.69;;;14.18;79.69
78383;BME280;67668;52.294;4.692;2023-05-10T00:22:23;100901.34;;;14.15;79.69
78383;BME280;67668;52.294;4.692;2023-05-10T00:24:48;100908.50;;;14.14;79.39
78383;BME280;67668;52.294;4.692;2023-05-10T00:27:14;100905.16;;;14.12;79.37
78383;BME280;67668;52.294;4.692;2023-05-10T00:29:39;100895.66;;;14.10;79.11
78383;BME280;67668;52.294;4.692;2023-05-10T00:32:05;100898.50;;;14.08;79.48
78383;BME280;67668;52.294;4.692;2023-05-10T00:34:31;100896.84;;;14.07;79.05
78383;BME280;67668;52.294;4.692;2023-05-10T00:36:57;100898.00;;;14.05;79.02
78383;BME280;67668;52.294;4.692;2023-05-10T00:39:22;100899.97;;;14.03;79.33
78383;BME280;67668;52.294;4.692;2023-05-10T00:41:47;100902.81;;;14.01;79.56
78383;BME280;67668;52.294;4.692;2023-05-10T00:44:13;100903.78;;;14.00;79.14
78383;BME280;67668;52.294;4.692;2023-05-10T00:46:38;100906.78;;;13.97;79.26
78383;BME280;67668;52.294;4.692;2023-05-10T00:49:04;100904.28;;;13.95;79.25
78383;BME280;67668;52.294;4.692;2023-05-10T00:51:29;100907.94;;;13.94;78.87
78383;BME280;67668;52.294;4.692;2023-05-10T00:53:56;100913.59;;;13.91;78.92
78383;BME280;67668;52.294;4.692;2023-05-10T00:56:22;100917.25;;;13.90;79.16
78383;BME280;67668;52.294;4.692;2023-05-10T00:58:48;100920.88;;;13.89;79.10
78383;BME280;67668;52.294;4.692;2023-05-10T01:01:14;100909.59;;;13.87;78.94
78383;BME280;67668;52.294;4.692;2023-05-10T01:03:40;100915.88;;;13.86;78.96
78383;BME280;67668;52.294;4.692;2023-05-10T01:06:06;100913.56;;;13.83;78.99
78383;BME280;67668;52.294;4.692;2023-05-10T01:08:31;100914.72;;;13.81;79.03
78383;BME280;67668;52.294;4.692;2023-05-10T01:10:57;100919.19;;;13.80;79.23
78383;BME280;67668;52.294;4.692;2023-05-10T01:13:40;100923.03;;;13.78;79.01
78383;BME280;67668;52.294;4.692;2023-05-10T01:16:06;100923.16;;;13.76;79.23
78383;BME280;67668;52.294;4.692;2023-05-10T01:18:37;100919.84;;;13.74;79.78
78383;BME280;67668;52.294;4.692;2023-05-10T01:21:17;100927.81;;;13.74;79.35
78383;BME280;67668;52.294;4.692;2023-05-10T01:24:12;100922.81;;;13.71;79.65
78383;BME280;67668;52.294;4.692;2023-05-10T01:29:49;100929.28;;;13.69;79.79
78383;BME280;67668;52.294;4.692;2023-05-10T01:41:12;100938.59;;;13.65;80.08
78383;BME280;67668;52.294;4.692;2023-05-10T01:43:55;100944.88;;;13.64;80.07
78383;BME280;67668;52.294;4.692;2023-05-10T01:46:40;100947.69;;;13.62;80.22
78383;BME280;67668;52.294;4.692;2023-05-10T01:49:21;100955.00;;;13.60;80.44
78383;BME280;67668;52.294;4.692;2023-05-10T01:51:52;100944.53;;;13.59;80.47
78383;BME280;67668;52.294;4.692;2023-05-10T01:54:21;100949.88;;;13.59;80.76
78383;BME280;67668;52.294;4.692;2023-05-10T01:56:55;100948.00;;;13.59;80.68
78383;BME280;67668;52.294;4.692;2023-05-10T01:59:28;100948.84;;;13.60;81.05
78383;BME280;67668;52.294;4.692;2023-05-10T02:01:57;100955.00;;;13.60;80.90
78383;BME280;67668;52.294;4.692;2023-05-10T02:04:26;100956.00;;;13.59;80.79
78383;BME280;67668;52.294;4.692;2023-05-10T02:06:53;100954.34;;;13.58;80.91
78383;BME280;67668;52.294;4.692;2023-05-10T02:09:20;100958.50;;;13.61;80.89
78383;BME280;67668;52.294;4.692;2023-05-10T02:11:47;100966.63;;;13.59;81.36
78383;BME280;67668;52.294;4.692;2023-05-10T02:14:15;100957.00;;;13.58;81.07
78383;BME280;67668;52.294;4.692;2023-05-10T02:16:41;100963.16;;;13.59;81.16
78383;BME280;67668;52.294;4.692;2023-05-10T02:19:07;100963.97;;;13.59;81.38
78383;BME280;67668;52.294;4.692;2023-05-10T02:21:34;100957.84;;;13.59;81.21
78383;BME280;67668;52.294;4.692;2023-05-10T02:24:03;100964.81;;;13.60;81.62
78383;BME280;67668;52.294;4.692;2023-05-10T02:26:29;100961.31;;;13.59;81.43
78383;BME280;67668;52.294;4.692;2023-05-10T02:28:57;100970.97;;;13.60;81.12
78383;BME280;67668;52.294;4.692;2023-05-10T02:31:23;100969.28;;;13.59;81.37
78383;BME280;67668;52.294;4.692;2023-05-10T02:33:50;100964.97;;;13.58;81.62
78383;BME280;67668;52.294;4.692;2023-05-10T02:36:16;100976.28;;;13.60;81.08
78383;BME280;67668;52.294;4.692;2023-05-10T02:38:43;100970.97;;;13.60;81.45
78383;BME280;67668;52.294;4.692;2023-05-10T02:41:09;100971.94;;;13.59;81.50
78383;BME280;67668;52.294;4.692;2023-05-10T02:43:37;100974.59;;;13.59;81.25
78383;BME280;67668;52.294;4.692;2023-05-10T02:46:04;100977.28;;;13.59;81.48
78383;BME280;67668;52.294;4.692;2023-05-10T02:48:30;100978.94;;;13.60;81.30
78383;BME280;67668;52.294;4.692;2023-05-10T02:50:59;100984.25;;;13.60;81.29
78383;BME280;67668;52.294;4.692;2023-05-10T02:53:36;100984.25;;;13.60;81.71
78383;BME280;67668;52.294;4.692;2023-05-10T02:56:12;100977.13;;;13.61;81.81
78383;BME280;67668;52.294;4.692;2023-05-10T02:58:39;100982.28;;;13.62;81.33
78383;BME280;67668;52.294;4.692;2023-05-10T03:01:04;100981.59;;;13.60;81.67
78383;BME280;67668;52.294;4.692;2023-05-10T03:03:30;100982.44;;;13.61;81.81
78383;BME280;67668;52.294;4.692;2023-05-10T03:05:55;100986.94;;;13.60;81.67
78383;BME280;67668;52.294;4.692;2023-05-10T03:08:22;100990.41;;;13.61;81.42
78383;BME280;67668;52.294;4.692;2023-05-10T03:11:01;100984.25;;;13.60;81.64
78383;BME280;67668;52.294;4.692;2023-05-10T03:13:41;100983.44;;;13.60;81.49
78383;BME280;67668;52.294;4.692;2023-05-10T03:16:12;100987.91;;;13.59;81.47
78383;BME280;67668;52.294;4.692;2023-05-10T03:19:43;100989.75;;;13.59;81.25
78383;BME280;67668;52.294;4.692;2023-05-10T03:21:50;100981.09;;;13.57;81.68
78383;BME280;67668;52.294;4.692;2023-05-10T03:24:20;100986.41;;;13.57;81.41
78383;BME280;67668;52.294;4.692;2023-05-10T03:26:47;100990.75;;;13.58;81.80
78383;BME280;67668;52.294;4.692;2023-05-10T03:29:13;100980.25;;;13.56;81.36
78383;BME280;67668;52.294;4.692;2023-05-10T03:31:39;100989.91;;;13.57;81.60
78383;BME280;67668;52.294;4.692;2023-05-10T03:34:05;100994.38;;;13.57;81.82
78383;BME280;67668;52.294;4.692;2023-05-10T03:36:31;100997.03;;;13.57;81.25
78383;BME280;67668;52.294;4.692;2023-05-10T03:38:56;100993.53;;;13.56;81.30
78383;BME280;67668;52.294;4.692;2023-05-10T03:41:22;100992.56;;;13.57;81.20
78383;BME280;67668;52.294;4.692;2023-05-10T03:43:47;100990.88;;;13.56;81.37
78383;BME280;67668;52.294;4.692;2023-05-10T03:46:13;100992.56;;;13.57;81.19
78383;BME280;67668;52.294;4.692;2023-05-10T03:48:38;100991.72;;;13.57;81.51
78383;BME280;67668;52.294;4.692;2023-05-10T03:51:03;100985.41;;;13.58;81.29
78383;BME280;67668;52.294;4.692;2023-05-10T03:53:29;100988.22;;;13.56;81.44
78383;BME280;67668;52.294;4.692;2023-05-10T03:55:54;100998.84;;;13.56;81.12
78383;BME280;67668;52.294;4.692;2023-05-10T03:58:20;101000.53;;;13.57;80.95
78383;BME280;67668;52.294;4.692;2023-05-10T04:00:46;101012.16;;;13.56;80.88
78383;BME280;67668;52.294;4.692;2023-05-10T04:03:12;101007.69;;;13.57;80.84
78383;BME280;67668;52.294;4.692;2023-05-10T04:05:37;101009.50;;;13.56;81.25
78383;BME280;67668;52.294;4.692;2023-05-10T04:08:04;101014.81;;;13.56;81.33
78383;BME280;67668;52.294;4.692;2023-05-10T04:10:30;101003.34;;;13.56;80.75
78383;BME280;67668;52.294;4.692;2023-05-10T04:12:55;101001.69;;;13.55;80.52
78383;BME280;67668;52.294;4.692;2023-05-10T04:15:21;101009.66;;;13.55;80.69
78383;BME280;67668;52.294;4.692;2023-05-10T04:17:46;101006.19;;;13.54;80.76
78383;BME280;67668;52.294;4.692;2023-05-10T04:20:12;101005.34;;;13.54;81.05
78383;BME280;67668;52.294;4.692;2023-05-10T04:22:38;101003.50;;;13.54;80.86
78383;BME280;67668;52.294;4.692;2023-05-10T04:25:03;101006.19;;;13.54;80.83
78383;BME280;67668;52.294;4.692;2023-05-10T04:27:30;101012.47;;;13.53;81.05
78383;BME280;67668;52.294;4.692;2023-05-10T04:29:55;101003.66;;;13.53;81.06
78383;BME280;67668;52.294;4.692;2023-05-10T04:32:20;101006.31;;;13.53;81.25
78383;BME280;67668;52.294;4.692;2023-05-10T04:34:46;101011.63;;;13.53;80.82
78383;BME280;67668;52.294;4.692;2023-05-10T04:37:12;101010.00;;;13.52;80.77
78383;BME280;67668;52.294;4.692;2023-05-10T04:39:37;101015.31;;;13.52;81.05
78383;BME280;67668;52.294;4.692;2023-05-10T04:42:03;101017.13;;;13.51;81.27
78383;BME280;67668;52.294;4.692;2023-05-10T04:44:31;101018.81;;;13.52;81.09
78383;BME280;67668;52.294;4.692;2023-05-10T04:46:56;101022.44;;;13.51;80.68
78383;BME280;67668;52.294;4.692;2023-05-10T04:49:22;101024.13;;;13.52;80.81
78383;BME280;67668;52.294;4.692;2023-05-10T04:51:47;101018.09;;;13.50;80.85
78383;BME280;67668;52.294;4.692;2023-05-10T04:54:13;101022.44;;;13.51;80.98
78383;BME280;67668;52.294;4.692;2023-05-10T04:56:38;101028.75;;;13.50;81.09
78383;BME280;67668;52.294;4.692;2023-05-10T04:59:03;101026.94;;;13.51;80.75
78383;BME280;67668;52.294;4.692;2023-05-10T05:01:29;101026.09;;;13.50;80.92
78383;BME280;67668;52.294;4.692;2023-05-10T05:03:54;101035.03;;;13.49;81.02
78383;BME280;67668;52.294;4.692;2023-05-10T05:06:21;101030.56;;;13.50;80.69
78383;BME280;67668;52.294;4.692;2023-05-10T05:08:46;101035.88;;;13.50;80.67
78383;BME280;67668;52.294;4.692;2023-05-10T05:11:12;101037.56;;;13.51;80.91
78383;BME280;67668;52.294;4.692;2023-05-10T05:13:38;101038.53;;;13.50;80.73
78383;BME280;67668;52.294;4.692;2023-05-10T05:16:04;101047.34;;;13.50;81.29
78383;BME280;67668;52.294;4.692;2023-05-10T05:18:30;101050.00;;;13.50;81.22
78383;BME280;67668;52.294;4.692;2023-05-10T05:20:55;101050.00;;;13.50;81.12
78383;BME280;67668;52.294;4.692;2023-05-10T05:23:21;101057.16;;;13.50;80.97
78383;BME280;67668;52.294;4.692;2023-05-10T05:25:51;101050.19;;;13.49;81.37
78383;BME280;67668;52.294;4.692;2023-05-10T05:28:17;101050.19;;;13.49;81.31
78383;BME280;67668;52.294;4.692;2023-05-10T05:30:42;101062.47;;;13.50;81.23
78383;BME280;67668;52.294;4.692;2023-05-10T05:33:07;101065.81;;;13.52;81.48
78383;BME280;67668;52.294;4.692;2023-05-10T05:35:33;101066.81;;;13.51;81.05
78383;BME280;67668;52.294;4.692;2023-05-10T05:37:58;101065.00;;;13.51;80.89
78383;BME280;67668;52.294;4.692;2023-05-10T05:40:24;101071.16;;;13.52;81.34
78383;BME280;67668;52.294;4.692;2023-05-10T05:42:49;101069.47;;;13.51;81.36
78383;BME280;67668;52.294;4.692;2023-05-10T05:45:14;101070.31;;;13.51;81.42
78383;BME280;67668;52.294;4.692;2023-05-10T05:47:40;101066.66;;;13.52;81.21
78383;BME280;67668;52.294;4.692;2023-05-10T05:50:06;101072.00;;;13.52;81.52
78383;BME280;67668;52.294;4.692;2023-05-10T05:52:32;101073.63;;;13.53;81.24
78383;BME280;67668;52.294;4.692;2023-05-10T05:54:57;101075.31;;;13.54;81.62
78383;BME280;67668;52.294;4.692;2023-05-10T05:57:22;101067.16;;;13.56;81.75
78383;BME280;67668;52.294;4.692;2023-05-10T05:59:49;101070.66;;;13.56;81.37
78383;BME280;67668;52.294;4.692;2023-05-10T06:02:14;101081.16;;;13.58;81.85
78383;BME280;67668;52.294;4.692;2023-05-10T06:04:40;101081.00;;;13.59;81.67
78383;BME280;67668;52.294;4.692;2023-05-10T06:07:05;101078.31;;;13.59;81.26
78383;BME280;67668;52.294;4.692;2023-05-10T06:09:31;101085.31;;;13.60;81.32
78383;BME280;67668;52.294;4.692;2023-05-10T06:11:56;101082.53;;;13.62;81.40
78383;BME280;67668;52.294;4.692;2023-05-10T06:14:22;101083.34;;;13.62;81.64
78383;BME280;67668;52.294;4.692;2023-05-10T06:16:48;101086.84;;;13.63;81.25
78383;BME280;67668;52.294;4.692;2023-05-10T06:19:14;101089.34;;;13.64;81.33
78383;BME280;67668;52.294;4.692;2023-05-10T06:21:39;101088.38;;;13.65;82.01
78383;BME280;67668;52.294;4.692;2023-05-10T06:24:10;101089.19;;;13.66;81.79
78383;BME280;67668;52.294;4.692;2023-05-10T06:26:38;101089.03;;;13.67;81.73
78383;BME280;67668;52.294;4.692;2023-05-10T06:29:03;101089.72;;;13.69;81.93
78383;BME280;67668;52.294;4.692;2023-05-10T06:31:29;101093.06;;;13.71;81.76
78383;BME280;67668;52.294;4.692;2023-05-10T06:33:54;101098.22;;;13.73;81.86
78383;BME280;67668;52.294;4.692;2023-05-10T06:36:19;101103.38;;;13.74;82.10
78383;BME280;67668;52.294;4.692;2023-05-10T06:38:45;101094.44;;;13.75;82.19
78383;BME280;67668;52.294;4.692;2023-05-10T06:41:10;101096.91;;;13.77;81.97
78383;BME280;67668;52.294;4.692;2023-05-10T06:43:36;101098.59;;;13.78;82.00
78383;BME280;67668;52.294;4.692;2023-05-10T06:46:05;101102.75;;;13.80;81.71
78383;BME280;67668;52.294;4.692;2023-05-10T06:48:30;101097.13;;;13.83;81.88
78383;BME280;67668;52.294;4.692;2023-05-10T06:50:56;101102.97;;;13.87;81.90
78383;BME280;67668;52.294;4.692;2023-05-10T06:53:21;101107.13;;;13.89;81.98
78383;BME280;67668;52.294;4.692;2023-05-10T06:55:47;101106.81;;;13.92;81.74
78383;BME280;67668;52.294;4.692;2023-05-10T06:58:14;101112.84;;;13.94;81.53
78383;BME280;67668;52.294;4.692;2023-05-10T07:00:39;101112.66;;;13.96;81.70
78383;BME280;67668;52.294;4.692;2023-05-10T07:03:05;101108.88;;;13.98;81.48
78383;BME280;67668;52.294;4.692;2023-05-10T07:05:31;101118.69;;;13.98;80.81
78383;BME280;67668;52.294;4.692;2023-05-10T07:07:56;101121.16;;;13.99;81.08
78383;BME280;67668;52.294;4.692;2023-05-10T07:10:22;101119.22;;;14.02;80.92
78383;BME280;67668;52.294;4.692;2023-05-10T07:12:47;101124.22;;;14.05;80.54
78383;BME280;67668;52.294;4.692;2023-05-10T07:15:13;101130.53;;;14.04;80.82
78383;BME280;67668;52.294;4.692;2023-05-10T07:17:38;101129.38;;;14.06;80.60
78383;BME280;67668;52.294;4.692;2023-05-10T07:20:04;101124.88;;;14.07;80.74
78383;BME280;67668;52.294;4.692;2023-05-10T07:22:30;101130.06;;;14.08;80.78
78383;BME280;67668;52.294;4.692;2023-05-10T07:24:55;101129.88;;;14.10;80.94
78383;BME280;67668;52.294;4.692;2023-05-10T07:27:21;101122.59;;;14.12;80.62
78383;BME280;67668;52.294;4.692;2023-05-10T07:29:47;101126.06;;;14.12;80.59
78383;BME280;67668;52.294;4.692;2023-05-10T07:32:12;101134.56;;;14.16;81.32
78383;BME280;67668;52.294;4.692;2023-05-10T07:34:38;101134.25;;;14.19;80.60
78383;BME280;67668;52.294;4.692;2023-05-10T07:37:03;101129.63;;;14.21;80.33
78383;BME280;67668;52.294;4.692;2023-05-10T07:39:29;101136.47;;;14.23;80.50
78383;BME280;67668;52.294;4.692;2023-05-10T07:41:55;101144.13;;;14.26;80.51
78383;BME280;67668;52.294;4.692;2023-05-10T07:44:20;101138.66;;;14.28;80.95
78383;BME280;67668;52.294;4.692;2023-05-10T07:46:46;101137.50;;;14.30;80.11
78383;BME280;67668;52.294;4.692;2023-05-10T07:49:12;101136.34;;;14.33;80.31
78383;BME280;67668;52.294;4.692;2023-05-10T07:51:38;101143.38;;;14.34;80.45
78383;BME280;67668;52.294;4.692;2023-05-10T07:54:03;101142.22;;;14.36;80.22
78383;BME280;67668;52.294;4.692;2023-05-10T07:56:31;101145.53;;;14.38;80.23
78383;BME280;67668;52.294;4.692;2023-05-10T07:59:01;101146.25;;;14.40;80.18
78383;BME280;67668;52.294;4.692;2023-05-10T08:01:30;101148.59;;;14.43;79.90
78383;BME280;67668;52.294;4.692;2023-05-10T08:03:55;101143.25;;;14.43;80.01
78383;BME280;67668;52.294;4.692;2023-05-10T08:06:21;101149.25;;;14.45;79.82
78383;BME280;67668;52.294;4.692;2023-05-10T08:08:47;101145.47;;;14.48;79.61
78383;BME280;67668;52.294;4.692;2023-05-10T08:11:16;101150.47;;;14.51;79.46
78383;BME280;67668;52.294;4.692;2023-05-10T08:13:42;101152.94;;;14.53;79.77
78383;BME280;67668;52.294;4.692;2023-05-10T08:16:08;101149.28;;;14.54;79.49
78383;BME280;67668;52.294;4.692;2023-05-10T08:18:33;101156.97;;;14.57;79.54
78383;BME280;67668;52.294;4.692;2023-05-10T08:20:58;101158.78;;;14.56;78.83
78383;BME280;67668;52.294;4.692;2023-05-10T08:23:25;101162.97;;;14.59;79.35
78383;BME280;67668;52.294;4.692;2023-05-10T08:25:51;101171.66;;;14.61;79.33
78383;BME280;67668;52.294;4.692;2023-05-10T08:28:16;101171.47;;;14.62;78.99
78383;BME280;67668;52.294;4.692;2023-05-10T08:30:41;101180.28;;;14.63;79.09
78383;BME280;67668;52.294;4.692;2023-05-10T08:33:09;101185.31;;;14.66;79.07
78383;BME280;67668;52.294;4.692;2023-05-10T08:35:34;101180.66;;;14.68;79.07
78383;BME280;67668;52.294;4.692;2023-05-10T08:38:00;101180.50;;;14.69;78.87
78383;BME280;67668;52.294;4.692;2023-05-10T08:40:26;101184.97;;;14.69;78.68
78383;BME280;67668;52.294;4.692;2023-05-10T08:42:59;101177.50;;;14.72;78.84
78383;BME280;67668;52.294;4.692;2023-05-10T08:45:27;101186.34;;;14.73;78.59
78383;BME280;67668;52.294;4.692;2023-05-10T08:47:53;101188.84;;;14.74;78.67
78383;BME280;67668;52.294;4.692;2023-05-10T08:50:20;101192.84;;;14.78;78.78
78383;BME280;67668;52.294;4.692;2023-05-10T08:52:47;101193.53;;;14.80;78.44
78383;BME280;67668;52.294;4.692;2023-05-10T08:55:15;101196.03;;;14.82;78.46
78383;BME280;67668;52.294;4.692;2023-05-10T08:57:41;101194.91;;;14.84;78.25
78383;BME280;67668;52.294;4.692;2023-05-10T09:00:07;101201.72;;;14.87;78.38
78383;BME280;67668;52.294;4.692;2023-05-10T09:02:33;101201.56;;;14.88;78.07
78383;BME280;67668;52.294;4.692;2023-05-10T09:04:59;101205.75;;;14.91;77.98
78383;BME280;67668;52.294;4.692;2023-05-10T09:07:25;101216.94;;;14.94;78.23
78383;BME280;67668;52.294;4.692;2023-05-10T09:09:51;101209.59;;;14.96;78.59
78383;BME280;67668;52.294;4.692;2023-05-10T09:12:17;101220.06;;;14.98;77.83
78383;BME280;67668;52.294;4.692;2023-05-10T09:14:43;101210.09;;;15.00;77.99
78383;BME280;67668;52.294;4.692;2023-05-10T09:17:09;101222.97;;;15.05;78.24
78383;BME280;67668;52.294;4.692;2023-05-10T09:19:35;101222.13;;;15.04;77.59
78383;BME280;67668;52.294;4.692;2023-05-10T09:22:00;101230.63;;;15.08;76.99
78383;BME280;67668;52.294;4.692;2023-05-10T09:24:29;101225.97;;;15.10;77.04
78383;BME280;67668;52.294;4.692;2023-05-10T09:26:56;101228.47;;;15.11;77.33
78383;BME280;67668;52.294;4.692;2023-05-10T09:29:23;101232.66;;;15.14;77.14
78383;BME280;67668;52.294;4.692;2023-05-10T09:31:50;101231.81;;;15.13;76.56
78383;BME280;67668;52.294;4.692;2023-05-10T09:34:20;101227.84;;;15.17;77.06
78383;BME280;67668;52.294;4.692;2023-05-10T09:37:04;101240.84;;;15.20;76.80
78383;BME280;67668;52.294;4.692;2023-05-10T09:39:34;101235.31;;;15.22;77.00
78383;BME280;67668;52.294;4.692;2023-05-10T09:42:02;101237.00;;;15.23;76.93
78383;BME280;67668;52.294;4.692;2023-05-10T09:44:29;101238.34;;;15.27;77.39
78383;BME280;67668;52.294;4.692;2023-05-10T09:46:54;101244.53;;;15.27;76.77
78383;BME280;67668;52.294;4.692;2023-05-10T09:49:20;101248.69;;;15.30;77.07
78383;BME280;67668;52.294;4.692;2023-05-10T09:51:46;101245.03;;;15.31;76.66
78383;BME280;67668;52.294;4.692;2023-05-10T09:54:15;101248.38;;;15.33;76.76
78383;BME280;67668;52.294;4.692;2023-05-10T09:56:41;101252.53;;;15.35;76.80
78383;BME280;67668;52.294;4.692;2023-05-10T09:59:10;101257.03;;;15.35;76.18
78383;BME280;67668;52.294;4.692;2023-05-10T10:01:36;101260.41;;;15.37;76.92
78383;BME280;67668;52.294;4.692;2023-05-10T10:04:05;101254.72;;;15.40;76.68
78383;BME280;67668;52.294;4.692;2023-05-10T10:06:38;101259.06;;;15.41;76.63
78383;BME280;67668;52.294;4.692;2023-05-10T10:09:05;101252.72;;;15.42;76.48
78383;BME280;67668;52.294;4.692;2023-05-10T10:11:30;101256.41;;;15.41;76.13
78383;BME280;67668;52.294;4.692;2023-05-10T10:13:56;101253.22;;;15.45;76.25
78383;BME280;67668;52.294;4.692;2023-05-10T10:16:21;101261.94;;;15.47;76.47
78383;BME280;67668;52.294;4.692;2023-05-10T10:18:48;101258.13;;;15.50;76.51
78383;BME280;67668;52.294;4.692;2023-05-10T10:21:14;101264.97;;;15.52;76.44
78383;BME280;67668;52.294;4.692;2023-05-10T10:23:40;101260.47;;;15.53;75.73
78383;BME280;67668;52.294;4.692;2023-05-10T10:26:06;101260.47;;;15.53;76.09
78383;BME280;67668;52.294;4.692;2023-05-10T10:31:46;101267.28;;;15.56;76.27
78383;BME280;67668;52.294;4.692;2023-05-10T10:34:25;101266.81;;;15.60;76.90
78383;BME280;67668;52.294;4.692;2023-05-10T10:36:52;101272.66;;;15.64;76.39
78383;BME280;67668;52.294;4.692;2023-05-10T10:39:17;101263.50;;;15.66;76.16
78383;BME280;67668;52.294;4.692;2023-05-10T10:41:55;101263.31;;;15.68;75.74
78383;BME280;67668;52.294;4.692;2023-05-10T10:52:40;101267.69;;;15.77;76.27
78383;BME280;67668;52.294;4.692;2023-05-10T11:02:59;101273.19;;;15.83;74.92
78383;BME280;67668;52.294;4.692;2023-05-10T11:11:02;101285.53;;;15.92;75.69
78383;BME280;67668;52.294;4.692;2023-05-10T11:15:54;101293.88;;;15.97;75.45
78383;BME280;67668;52.294;4.692;2023-05-10T11:18:28;101292.22;;;15.96;75.36
78383;BME280;67668;52.294;4.692;2023-05-10T11:20:59;101292.88;;;15.98;75.41
78383;BME280;67668;52.294;4.692;2023-05-10T11:23:32;101297.38;;;15.98;75.37
78383;BME280;67668;52.294;4.692;2023-05-10T11:25:59;101292.72;;;16.00;75.37
78383;BME280;67668;52.294;4.692;2023-05-10T11:28:26;101290.72;;;16.02;75.48
78383;BME280;67668;52.294;4.692;2023-05-10T11:30:52;101297.88;;;16.01;74.75
78383;BME280;67668;52.294;4.692;2023-05-10T11:33:18;101290.56;;;16.03;74.99
78383;BME280;67668;52.294;4.692;2023-05-10T11:35:44;101298.41;;;16.05;75.11
78383;BME280;67668;52.294;4.692;2023-05-10T11:38:11;101305.41;;;16.06;75.14
78383;BME280;67668;52.294;4.692;2023-05-10T11:40:37;101311.09;;;16.03;74.34
78383;BME280;67668;52.294;4.692;2023-05-10T11:43:03;101303.91;;;16.03;75.20
78383;BME280;67668;52.294;4.692;2023-05-10T11:45:32;101308.09;;;16.06;75.07
78383;BME280;67668;52.294;4.692;2023-05-10T11:47:58;101310.91;;;16.04;74.72
78383;BME280;67668;52.294;4.692;2023-05-10T11:50:24;101315.09;;;16.07;74.93
78383;BME280;67668;52.294;4.692;2023-05-10T11:52:54;101315.75;;;16.09;75.08
78383;BME280;67668;52.294;4.692;2023-05-10T11:55:20;101312.75;;;16.12;74.84
78383;BME280;67668;52.294;4.692;2023-05-10T11:57:45;101317.94;;;16.14;75.18
78383;BME280;67668;52.294;4.692;2023-05-10T12:00:12;101308.91;;;16.15;74.65
78383;BME280;67668;52.294;4.692;2023-05-10T12:02:38;101309.09;;;16.13;74.60
78383;BME280;67668;52.294;4.692;2023-05-10T12:05:04;101317.75;;;16.15;74.42
78383;BME280;67668;52.294;4.692;2023-05-10T12:07:30;101321.13;;;16.17;74.65
78383;BME280;67668;52.294;4.692;2023-05-10T12:10:12;101319.25;;;16.18;74.44
78383;BME280;67668;52.294;4.692;2023-05-10T12:12:46;101320.78;;;16.20;74.27
78383;BME280;67668;52.294;4.692;2023-05-10T12:15:19;101322.28;;;16.23;74.56
78383;BME280;67668;52.294;4.692;2023-05-10T12:17:46;101320.59;;;16.22;74.44
78383;BME280;67668;52.294;4.692;2023-05-10T12:20:19;101321.44;;;16.22;74.49
78383;BME280;67668;52.294;4.692;2023-05-10T12:22:55;101321.94;;;16.26;74.53
78383;BME280;67668;52.294;4.692;2023-05-10T12:25:23;101328.13;;;16.26;74.61
78383;BME280;67668;52.294;4.692;2023-05-10T12:27:50;101326.94;;;16.29;74.62
78383;BME280;67668;52.294;4.692;2023-05-10T12:30:35;101330.13;;;16.32;74.16
78383;BME280;67668;52.294;4.692;2023-05-10T12:33:03;101328.28;;;16.33;73.95
78383;BME280;67668;52.294;4.692;2023-05-10T12:35:32;101329.63;;;16.37;74.33
78383;BME280;67668;52.294;4.692;2023-05-10T12:37:58;101321.09;;;16.41;74.48
78383;BME280;67668;52.294;4.692;2023-05-10T12:40:23;101333.97;;;16.46;74.47
78383;BME280;67668;52.294;4.692;2023-05-10T12:42:49;101333.63;;;16.49;74.27
78383;BME280;67668;52.294;4.692;2023-05-10T12:45:14;101331.81;;;16.49;74.27
78383;BME280;67668;52.294;4.692;2023-05-10T12:47:40;101335.81;;;16.53;74.01
78383;BME280;67668;52.294;4.692;2023-05-10T12:50:06;101334.78;;;16.54;73.64
78383;BME280;67668;52.294;4.692;2023-05-10T12:52:31;101330.81;;;16.59;74.04
78383;BME280;67668;52.294;4.692;2023-05-10T12:54:58;101339.34;;;16.62;73.54
78383;BME280;67668;52.294;4.692;2023-05-10T12:57:24;101337.31;;;16.64;73.39
78383;BME280;67668;52.294;4.692;2023-05-10T12:59:58;101334.47;;;16.66;73.30
78383;BME280;67668;52.294;4.692;2023-05-10T13:02:24;101337.81;;;16.68;73.29
78383;BME280;67668;52.294;4.692;2023-05-10T13:04:49;101342.31;;;16.67;73.21
78383;BME280;67668;52.294;4.692;2023-05-10T13:07:15;101344.84;;;16.69;73.19
78383;BME280;67668;52.294;4.692;2023-05-10T13:09:40;101344.69;;;16.70;73.13
78383;BME280;67668;52.294;4.692;2023-05-10T13:12:06;101349.00;;;16.71;73.11
78383;BME280;67668;52.294;4.692;2023-05-10T13:14:32;101351.84;;;16.70;72.28
78383;BME280;67668;52.294;4.692;2023-05-10T13:16:57;101346.31;;;16.71;72.94
78383;BME280;67668;52.294;4.692;2023-05-10T13:19:23;101349.00;;;16.71;72.58
78383;BME280;67668;52.294;4.692;2023-05-10T13:21:48;101351.34;;;16.74;73.12
78383;BME280;67668;52.294;4.692;2023-05-10T13:24:14;101357.72;;;16.73;72.62
78383;BME280;67668;52.294;4.692;2023-05-10T13:26:40;101359.84;;;16.78;73.46
78383;BME280;67668;52.294;4.692;2023-05-10T13:29:06;101360.88;;;16.77;72.46
78383;BME280;67668;52.294;4.692;2023-05-10T13:31:31;101355.84;;;16.82;72.86